sensor_id;sensor_type;location;lat;lon;timestamp;temperature;humidity
8537;DHT22;4306;50.210;10.628;2023-04-24T00:01:21;11.30;99.90
8537;DHT22;4306;50.210;10.628;2023-04-24T00:03:48;11.30;99.90
8537;DHT22;4306;50.210;10.628;2023-04-24T00:06:16;11.20;99.90
8537;DHT22;4306;50.210;10.628;2023-04-24T00:08:43;11.30;99.90
8537;DHT22;4306;50.210;10.628;2023-04-24T00:11:10;11.20;99.90
8537;DHT22;4306;50.210;10.628;2023-04-24T00:13:37;11.20;99.90
8537;DHT22;4306;50.210;10.628;2023-04-24T00:16:04;11.10;99.90
8537;DHT22;4306;50.210;10.628;2023-04-24T00:18:31;11.10;99.90
8537;DHT22;4306;50.210;10.628;2023-04-24T00:20:58;11.20;99.90
8537;DHT22;4306;50.210;10.628;2023-04-24T00:23:26;11.20;99.90
8537;DHT22;4306;50.210;10.628;2023-04-24T00:25:53;11.10;99.90
8537;DHT22;4306;50.210;10.628;2023-04-24T00:28:20;11.20;99.90
8537;DHT22;4306;50.210;10.628;2023-04-24T00:30:47;11.20;99.90
8537;DHT22;4306;50.210;10.628;2023-04-24T00:33:14;11.10;99.90
8537;DHT22;4306;50.210;10.628;2023-04-24T00:35:40;11.20;99.90
8537;DHT22;4306;50.210;10.628;2023-04-24T00:38:07;11.20;99.90
8537;DHT22;4306;50.210;10.628;2023-04-24T00:40:35;11.20;99.90
8537;DHT22;4306;50.210;10.628;2023-04-24T00:43:02;11.10;99.90
8537;DHT22;4306;50.210;10.628;2023-04-24T00:45:29;11.10;99.90
8537;DHT22;4306;50.210;10.628;2023-04-24T00:47:57;11.10;99.90
8537;DHT22;4306;50.210;10.628;2023-04-24T00:50:25;11.10;99.90
8537;DHT22;4306;50.210;10.628;2023-04-24T00:52:52;11.00;99.90
8537;DHT22;4306;50.210;10.628;2023-04-24T00:55:19;11.10;99.90
8537;DHT22;4306;50.210;10.628;2023-04-24T00:57:47;11.00;99.90
8537;DHT22;4306;50.210;10.628;2023-04-24T01:00:15;11.00;99.90
8537;DHT22;4306;50.210;10.628;2023-04-24T01:02:43;11.00;99.90
8537;DHT22;4306;50.210;10.628;2023-04-24T01:05:11;11.00;99.90
8537;DHT22;4306;50.210;10.628;2023-04-24T01:07:39;10.90;99.90
8537;DHT22;4306;50.210;10.628;2023-04-24T01:10:10;11.00;99.90
8537;DHT22;4306;50.210;10.628;2023-04-24T01:12:37;11.00;99.90
8537;DHT22;4306;50.210;10.628;2023-04-24T01:15:06;11.00;99.90
8537;DHT22;4306;50.210;10.628;2023-04-24T01:17:33;10.90;99.90
8537;DHT22;4306;50.210;10.628;2023-04-24T01:20:01;10.90;99.90
8537;DHT22;4306;50.210;10.628;2023-04-24T01:22:33;11.00;99.90
8537;DHT22;4306;50.210;10.628;2023-04-24T01:24:59;10.90;99.90
8537;DHT22;4306;50.210;10.628;2023-04-24T01:27:26;10.90;99.90
8537;DHT22;4306;50.210;10.628;2023-04-24T01:29:53;11.00;99.90
8537;DHT22;4306;50.210;10.628;2023-04-24T01:32:20;10.90;99.90
8537;DHT22;4306;50.210;10.628;2023-04-24T01:34:48;10.90;99.90
8537;DHT22;4306;50.210;10.628;2023-04-24T01:37:15;10.90;99.90
8537;DHT22;4306;50.210;10.628;2023-04-24T01:39:43;10.90;99.90
8537;DHT22;4306;50.210;10.628;2023-04-24T01:42:10;10.90;99.90
8537;DHT22;4306;50.210;10.628;2023-04-24T01:44:38;10.80;99.90
8537;DHT22;4306;50.210;10.628;2023-04-24T01:47:05;10.80;99.90
8537;DHT22;4306;50.210;10.628;2023-04-24T01:49:33;10.80;99.90
8537;DHT22;4306;50.210;10.628;2023-04-24T01:52:00;10.80;99.90
8537;DHT22;4306;50.210;10.628;2023-04-24T01:54:27;10.90;99.90
8537;DHT22;4306;50.210;10.628;2023-04-24T01:56:55;10.80;99.90
8537;DHT22;4306;50.210;10.628;2023-04-24T01:59:23;10.80;99.90
8537;DHT22;4306;50.210;10.628;2023-04-24T02:01:51;10.80;99.90
8537;DHT22;4306;50.210;10.628;2023-04-24T02:04:18;10.70;99.90
8537;DHT22;4306;50.210;10.628;2023-04-24T02:06:45;10.80;99.90
8537;DHT22;4306;50.210;10.628;2023-04-24T02:09:12;10.60;99.90
8537;DHT22;4306;50.210;10.628;2023-04-24T02:11:39;10.60;99.90
8537;DHT22;4306;50.210;10.628;2023-04-24T02:14:07;10.60;99.90
8537;DHT22;4306;50.210;10.628;2023-04-24T02:16:34;10.60;99.90
8537;DHT22;4306;50.210;10.628;2023-04-24T02:19:01;10.50;99.90
8537;DHT22;4306;50.210;10.628;2023-04-24T02:21:28;10.50;99.90
8537;DHT22;4306;50.210;10.628;2023-04-24T02:23:56;10.40;99.90
8537;DHT22;4306;50.210;10.628;2023-04-24T02:26:23;10.40;99.90
8537;DHT22;4306;50.210;10.628;2023-04-24T02:28:50;10.40;99.90
8537;DHT22;4306;50.210;10.628;2023-04-24T02:31:18;10.40;99.90
8537;DHT22;4306;50.210;10.628;2023-04-24T02:33:45;10.40;99.90
8537;DHT22;4306;50.210;10.628;2023-04-24T02:36:12;10.40;99.90
8537;DHT22;4306;50.210;10.628;2023-04-24T02:38:39;10.30;99.90
8537;DHT22;4306;50.210;10.628;2023-04-24T02:41:06;10.40;99.90
8537;DHT22;4306;50.210;10.628;2023-04-24T02:43:33;10.40;99.90
8537;DHT22;4306;50.210;10.628;2023-04-24T02:46:00;10.40;99.90
8537;DHT22;4306;50.210;10.628;2023-04-24T02:48:28;10.30;99.90
8537;DHT22;4306;50.210;10.628;2023-04-24T02:50:55;10.30;99.90
8537;DHT22;4306;50.210;10.628;2023-04-24T02:53:23;10.30;99.90
8537;DHT22;4306;50.210;10.628;2023-04-24T02:55:49;10.30;99.90
8537;DHT22;4306;50.210;10.628;2023-04-24T02:58:16;10.30;99.90
8537;DHT22;4306;50.210;10.628;2023-04-24T03:00:45;10.30;99.90
8537;DHT22;4306;50.210;10.628;2023-04-24T03:03:12;10.30;99.90
8537;DHT22;4306;50.210;10.628;2023-04-24T03:05:41;10.30;99.90
8537;DHT22;4306;50.210;10.628;2023-04-24T03:08:07;10.40;99.90
8537;DHT22;4306;50.210;10.628;2023-04-24T03:10:34;10.40;99.90
8537;DHT22;4306;50.210;10.628;2023-04-24T03:13:01;10.40;99.90
8537;DHT22;4306;50.210;10.628;2023-04-24T03:15:28;10.40;99.90
8537;DHT22;4306;50.210;10.628;2023-04-24T03:17:55;10.40;99.90
8537;DHT22;4306;50.210;10.628;2023-04-24T03:20:22;10.30;99.90
8537;DHT22;4306;50.210;10.628;2023-04-24T03:22:50;10.30;99.90
8537;DHT22;4306;50.210;10.628;2023-04-24T03:25:17;10.40;99.90
8537;DHT22;4306;50.210;10.628;2023-04-24T03:27:43;10.40;99.90
8537;DHT22;4306;50.210;10.628;2023-04-24T03:30:11;10.40;99.90
8537;DHT22;4306;50.210;10.628;2023-04-24T03:32:37;10.40;99.90
8537;DHT22;4306;50.210;10.628;2023-04-24T03:35:06;10.40;99.90
8537;DHT22;4306;50.210;10.628;2023-04-24T03:37:33;10.30;99.90
8537;DHT22;4306;50.210;10.628;2023-04-24T03:40:02;10.40;99.90
8537;DHT22;4306;50.210;10.628;2023-04-24T03:42:29;10.30;99.90
8537;DHT22;4306;50.210;10.628;2023-04-24T03:44:55;10.30;99.90
8537;DHT22;4306;50.210;10.628;2023-04-24T03:47:22;10.30;99.90
8537;DHT22;4306;50.210;10.628;2023-04-24T03:49:49;10.30;99.90
8537;DHT22;4306;50.210;10.628;2023-04-24T03:52:16;10.30;99.90
8537;DHT22;4306;50.210;10.628;2023-04-24T03:54:43;10.30;99.90
8537;DHT22;4306;50.210;10.628;2023-04-24T03:57:11;10.30;99.90
8537;DHT22;4306;50.210;10.628;2023-04-24T03:59:38;10.30;99.90
8537;DHT22;4306;50.210;10.628;2023-04-24T04:02:05;10.30;99.90
8537;DHT22;4306;50.210;10.628;2023-04-24T04:04:32;10.30;99.90
8537;DHT22;4306;50.210;10.628;2023-04-24T04:06:58;10.30;99.90
8537;DHT22;4306;50.210;10.628;2023-04-24T04:09:26;10.30;99.90
8537;DHT22;4306;50.210;10.628;2023-04-24T04:11:53;10.30;99.90
8537;DHT22;4306;50.210;10.628;2023-04-24T04:14:22;10.30;99.90
8537;DHT22;4306;50.210;10.628;2023-04-24T04:16:48;10.30;99.90
8537;DHT22;4306;50.210;10.628;2023-04-24T04:19:15;10.30;99.90
8537;DHT22;4306;50.210;10.628;2023-04-24T04:21:42;10.20;99.90
8537;DHT22;4306;50.210;10.628;2023-04-24T04:24:11;10.20;99.90
8537;DHT22;4306;50.210;10.628;2023-04-24T04:26:38;10.20;99.90
8537;DHT22;4306;50.210;10.628;2023-04-24T04:29:06;10.20;99.90
8537;DHT22;4306;50.210;10.628;2023-04-24T04:31:34;10.20;99.90
8537;DHT22;4306;50.210;10.628;2023-04-24T04:34:02;10.10;99.90
8537;DHT22;4306;50.210;10.628;2023-04-24T04:36:29;10.20;99.90
8537;DHT22;4306;50.210;10.628;2023-04-24T04:38:56;10.20;99.90
8537;DHT22;4306;50.210;10.628;2023-04-24T04:41:24;10.10;99.90
8537;DHT22;4306;50.210;10.628;2023-04-24T04:43:51;10.20;99.90
8537;DHT22;4306;50.210;10.628;2023-04-24T04:46:18;10.20;99.90
8537;DHT22;4306;50.210;10.628;2023-04-24T04:48:47;10.30;99.90
8537;DHT22;4306;50.210;10.628;2023-04-24T04:51:14;10.10;99.90
8537;DHT22;4306;50.210;10.628;2023-04-24T04:53:41;10.10;99.90
8537;DHT22;4306;50.210;10.628;2023-04-24T04:56:07;10.20;99.90
8537;DHT22;4306;50.210;10.628;2023-04-24T04:58:35;10.20;99.90
8537;DHT22;4306;50.210;10.628;2023-04-24T05:01:02;10.30;99.90
8537;DHT22;4306;50.210;10.628;2023-04-24T05:03:28;10.30;99.90
8537;DHT22;4306;50.210;10.628;2023-04-24T05:05:57;10.30;99.90
8537;DHT22;4306;50.210;10.628;2023-04-24T05:08:24;10.30;99.90
8537;DHT22;4306;50.210;10.628;2023-04-24T05:10:52;10.30;99.90
8537;DHT22;4306;50.210;10.628;2023-04-24T05:13:19;10.30;99.90
8537;DHT22;4306;50.210;10.628;2023-04-24T05:15:46;10.30;99.90
8537;DHT22;4306;50.210;10.628;2023-04-24T05:18:13;10.40;99.90
8537;DHT22;4306;50.210;10.628;2023-04-24T05:20:41;10.40;99.90
8537;DHT22;4306;50.210;10.628;2023-04-24T05:23:10;10.40;99.90
8537;DHT22;4306;50.210;10.628;2023-04-24T05:25:37;10.40;99.90
8537;DHT22;4306;50.210;10.628;2023-04-24T05:28:05;10.40;99.90
8537;DHT22;4306;50.210;10.628;2023-04-24T05:30:32;10.40;99.90
8537;DHT22;4306;50.210;10.628;2023-04-24T05:32:59;10.50;99.90
8537;DHT22;4306;50.210;10.628;2023-04-24T05:35:26;10.50;99.90
8537;DHT22;4306;50.210;10.628;2023-04-24T05:37:53;10.50;99.90
8537;DHT22;4306;50.210;10.628;2023-04-24T05:40:21;10.60;99.90
8537;DHT22;4306;50.210;10.628;2023-04-24T05:42:48;10.60;99.90
8537;DHT22;4306;50.210;10.628;2023-04-24T05:45:15;10.60;99.90
8537;DHT22;4306;50.210;10.628;2023-04-24T05:47:42;10.60;99.90
8537;DHT22;4306;50.210;10.628;2023-04-24T05:50:10;10.60;99.90
8537;DHT22;4306;50.210;10.628;2023-04-24T05:52:38;10.50;99.90
8537;DHT22;4306;50.210;10.628;2023-04-24T05:55:05;10.60;99.90
8537;DHT22;4306;50.210;10.628;2023-04-24T05:57:34;10.60;99.90
8537;DHT22;4306;50.210;10.628;2023-04-24T06:00:01;10.60;99.90
8537;DHT22;4306;50.210;10.628;2023-04-24T06:02:28;10.50;99.90
8537;DHT22;4306;50.210;10.628;2023-04-24T06:04:57;10.50;99.90
8537;DHT22;4306;50.210;10.628;2023-04-24T06:07:24;10.60;99.90
8537;DHT22;4306;50.210;10.628;2023-04-24T06:09:52;10.70;99.90
8537;DHT22;4306;50.210;10.628;2023-04-24T06:12:19;10.70;99.90
8537;DHT22;4306;50.210;10.628;2023-04-24T06:14:47;10.70;99.90
8537;DHT22;4306;50.210;10.628;2023-04-24T06:17:15;10.70;99.90
8537;DHT22;4306;50.210;10.628;2023-04-24T06:19:41;10.80;99.90
8537;DHT22;4306;50.210;10.628;2023-04-24T06:22:08;10.80;99.90
8537;DHT22;4306;50.210;10.628;2023-04-24T06:24:36;10.70;99.90
8537;DHT22;4306;50.210;10.628;2023-04-24T06:27:02;10.70;99.90
8537;DHT22;4306;50.210;10.628;2023-04-24T06:29:29;10.70;99.90
8537;DHT22;4306;50.210;10.628;2023-04-24T06:31:57;10.80;99.90
8537;DHT22;4306;50.210;10.628;2023-04-24T06:34:24;10.70;99.90
8537;DHT22;4306;50.210;10.628;2023-04-24T06:36:51;10.80;99.90
8537;DHT22;4306;50.210;10.628;2023-04-24T06:39:18;10.80;99.90
8537;DHT22;4306;50.210;10.628;2023-04-24T06:41:45;10.80;99.90
8537;DHT22;4306;50.210;10.628;2023-04-24T06:44:12;10.80;99.90
8537;DHT22;4306;50.210;10.628;2023-04-24T06:46:40;10.80;99.90
8537;DHT22;4306;50.210;10.628;2023-04-24T06:49:08;10.90;99.90
8537;DHT22;4306;50.210;10.628;2023-04-24T06:51:35;11.00;99.90
8537;DHT22;4306;50.210;10.628;2023-04-24T06:54:02;11.00;99.90
8537;DHT22;4306;50.210;10.628;2023-04-24T06:56:29;11.00;99.90
8537;DHT22;4306;50.210;10.628;2023-04-24T06:58:56;11.10;99.90
8537;DHT22;4306;50.210;10.628;2023-04-24T07:01:22;11.00;99.90
8537;DHT22;4306;50.210;10.628;2023-04-24T07:03:49;10.90;99.90
8537;DHT22;4306;50.210;10.628;2023-04-24T07:06:17;10.90;99.90
8537;DHT22;4306;50.210;10.628;2023-04-24T07:08:47;11.10;99.90
8537;DHT22;4306;50.210;10.628;2023-04-24T07:11:14;11.00;99.90
8537;DHT22;4306;50.210;10.628;2023-04-24T07:13:41;11.00;99.90
8537;DHT22;4306;50.210;10.628;2023-04-24T07:16:08;11.20;99.90
8537;DHT22;4306;50.210;10.628;2023-04-24T07:18:35;11.30;99.90
8537;DHT22;4306;50.210;10.628;2023-04-24T07:21:02;11.30;99.90
8537;DHT22;4306;50.210;10.628;2023-04-24T07:23:31;11.20;99.90
8537;DHT22;4306;50.210;10.628;2023-04-24T07:25:58;11.20;99.90
8537;DHT22;4306;50.210;10.628;2023-04-24T07:28:25;11.30;99.90
8537;DHT22;4306;50.210;10.628;2023-04-24T07:30:51;11.40;99.90
8537;DHT22;4306;50.210;10.628;2023-04-24T07:33:19;11.40;99.90
8537;DHT22;4306;50.210;10.628;2023-04-24T07:35:46;11.40;99.90
8537;DHT22;4306;50.210;10.628;2023-04-24T07:38:13;11.40;99.90
8537;DHT22;4306;50.210;10.628;2023-04-24T07:40:41;11.40;99.90
8537;DHT22;4306;50.210;10.628;2023-04-24T07:43:08;11.40;99.90
8537;DHT22;4306;50.210;10.628;2023-04-24T07:45:35;11.40;99.90
8537;DHT22;4306;50.210;10.628;2023-04-24T07:48:03;11.40;99.90
8537;DHT22;4306;50.210;10.628;2023-04-24T07:50:29;11.50;99.90
8537;DHT22;4306;50.210;10.628;2023-04-24T07:52:56;11.60;99.90
8537;DHT22;4306;50.210;10.628;2023-04-24T07:55:23;11.70;99.90
8537;DHT22;4306;50.210;10.628;2023-04-24T07:57:51;11.80;99.90
8537;DHT22;4306;50.210;10.628;2023-04-24T08:00:18;11.80;99.90
8537;DHT22;4306;50.210;10.628;2023-04-24T08:02:46;11.90;99.90
8537;DHT22;4306;50.210;10.628;2023-04-24T08:05:13;11.90;99.90
8537;DHT22;4306;50.210;10.628;2023-04-24T08:07:39;12.00;99.90
8537;DHT22;4306;50.210;10.628;2023-04-24T08:10:09;12.00;99.90
8537;DHT22;4306;50.210;10.628;2023-04-24T08:12:37;12.10;99.90
8537;DHT22;4306;50.210;10.628;2023-04-24T08:15:06;12.10;99.90
8537;DHT22;4306;50.210;10.628;2023-04-24T08:17:34;12.20;99.90
8537;DHT22;4306;50.210;10.628;2023-04-24T08:20:01;12.20;99.90
8537;DHT22;4306;50.210;10.628;2023-04-24T08:22:28;12.30;99.90
8537;DHT22;4306;50.210;10.628;2023-04-24T08:24:55;12.30;99.90
8537;DHT22;4306;50.210;10.628;2023-04-24T08:27:22;12.40;99.90
8537;DHT22;4306;50.210;10.628;2023-04-24T08:30:28;12.30;99.90
8537;DHT22;4306;50.210;10.628;2023-04-24T08:32:55;12.30;99.90
8537;DHT22;4306;50.210;10.628;2023-04-24T08:35:22;12.10;99.90
8537;DHT22;4306;50.210;10.628;2023-04-24T08:37:49;12.10;99.90
8537;DHT22;4306;50.210;10.628;2023-04-24T08:40:16;12.00;99.90
8537;DHT22;4306;50.210;10.628;2023-04-24T08:42:44;12.00;99.90
8537;DHT22;4306;50.210;10.628;2023-04-24T08:45:11;12.10;99.90
8537;DHT22;4306;50.210;10.628;2023-04-24T08:47:41;11.80;99.90
8537;DHT22;4306;50.210;10.628;2023-04-24T08:50:08;11.80;99.90
8537;DHT22;4306;50.210;10.628;2023-04-24T08:52:35;11.80;99.90
8537;DHT22;4306;50.210;10.628;2023-04-24T08:55:03;11.90;99.90
8537;DHT22;4306;50.210;10.628;2023-04-24T08:57:30;12.10;99.90
8537;DHT22;4306;50.210;10.628;2023-04-24T08:59:58;12.10;99.90
8537;DHT22;4306;50.210;10.628;2023-04-24T09:02:25;12.30;99.90
8537;DHT22;4306;50.210;10.628;2023-04-24T09:04:56;12.50;99.90
8537;DHT22;4306;50.210;10.628;2023-04-24T09:07:24;12.70;99.90
8537;DHT22;4306;50.210;10.628;2023-04-24T09:09:52;12.60;99.20
8537;DHT22;4306;50.210;10.628;2023-04-24T09:12:19;12.50;98.30
8537;DHT22;4306;50.210;10.628;2023-04-24T09:14:46;12.40;98.30
8537;DHT22;4306;50.210;10.628;2023-04-24T09:17:14;12.40;98.70
8537;DHT22;4306;50.210;10.628;2023-04-24T09:19:41;12.50;99.10
8537;DHT22;4306;50.210;10.628;2023-04-24T09:22:09;12.60;98.80
8537;DHT22;4306;50.210;10.628;2023-04-24T09:24:36;12.50;98.20
8537;DHT22;4306;50.210;10.628;2023-04-24T09:27:04;12.60;98.30
8537;DHT22;4306;50.210;10.628;2023-04-24T09:29:31;12.70;98.20
8537;DHT22;4306;50.210;10.628;2023-04-24T09:31:58;12.80;98.60
8537;DHT22;4306;50.210;10.628;2023-04-24T09:34:26;12.70;97.20
8537;DHT22;4306;50.210;10.628;2023-04-24T09:36:54;12.60;97.20
8537;DHT22;4306;50.210;10.628;2023-04-24T09:39:22;12.80;97.50
8537;DHT22;4306;50.210;10.628;2023-04-24T09:41:50;12.80;97.40
8537;DHT22;4306;50.210;10.628;2023-04-24T09:44:18;12.70;97.30
8537;DHT22;4306;50.210;10.628;2023-04-24T09:46:51;12.60;96.60
8537;DHT22;4306;50.210;10.628;2023-04-24T09:49:23;12.80;97.00
8537;DHT22;4306;50.210;10.628;2023-04-24T09:51:50;12.80;96.50
8537;DHT22;4306;50.210;10.628;2023-04-24T09:54:18;12.80;96.70
8537;DHT22;4306;50.210;10.628;2023-04-24T09:56:48;12.80;96.60
8537;DHT22;4306;50.210;10.628;2023-04-24T09:59:17;12.80;95.90
8537;DHT22;4306;50.210;10.628;2023-04-24T10:01:44;12.80;95.40
8537;DHT22;4306;50.210;10.628;2023-04-24T10:04:18;12.80;94.80
8537;DHT22;4306;50.210;10.628;2023-04-24T10:06:46;12.80;94.20
8537;DHT22;4306;50.210;10.628;2023-04-24T10:09:14;12.80;94.80
8537;DHT22;4306;50.210;10.628;2023-04-24T10:11:43;12.70;95.00
8537;DHT22;4306;50.210;10.628;2023-04-24T10:14:13;12.80;94.70
8537;DHT22;4306;50.210;10.628;2023-04-24T10:16:40;12.80;95.00
8537;DHT22;4306;50.210;10.628;2023-04-24T10:19:07;12.80;95.20
8537;DHT22;4306;50.210;10.628;2023-04-24T10:21:35;12.80;95.10
8537;DHT22;4306;50.210;10.628;2023-04-24T10:24:03;12.90;95.50
8537;DHT22;4306;50.210;10.628;2023-04-24T10:26:33;13.00;95.40
8537;DHT22;4306;50.210;10.628;2023-04-24T10:29:01;13.10;95.10
8537;DHT22;4306;50.210;10.628;2023-04-24T10:31:31;13.20;94.90
8537;DHT22;4306;50.210;10.628;2023-04-24T10:34:00;13.10;94.60
8537;DHT22;4306;50.210;10.628;2023-04-24T10:36:28;13.10;94.00
8537;DHT22;4306;50.210;10.628;2023-04-24T10:38:59;13.00;94.10
8537;DHT22;4306;50.210;10.628;2023-04-24T10:41:27;13.10;94.30
8537;DHT22;4306;50.210;10.628;2023-04-24T10:44:04;13.10;93.90
8537;DHT22;4306;50.210;10.628;2023-04-24T10:46:33;13.00;93.90
8537;DHT22;4306;50.210;10.628;2023-04-24T10:49:03;13.30;93.90
8537;DHT22;4306;50.210;10.628;2023-04-24T10:51:45;13.40;93.50
8537;DHT22;4306;50.210;10.628;2023-04-24T10:54:25;13.40;92.70
8537;DHT22;4306;50.210;10.628;2023-04-24T10:56:53;13.30;92.90
8537;DHT22;4306;50.210;10.628;2023-04-24T10:59:35;13.00;92.70
8537;DHT22;4306;50.210;10.628;2023-04-24T11:02:07;12.80;92.50
8537;DHT22;4306;50.210;10.628;2023-04-24T11:04:34;12.90;93.60
8537;DHT22;4306;50.210;10.628;2023-04-24T11:07:03;13.10;93.60
8537;DHT22;4306;50.210;10.628;2023-04-24T11:09:31;12.90;93.30
8537;DHT22;4306;50.210;10.628;2023-04-24T11:12:05;13.10;93.80
8537;DHT22;4306;50.210;10.628;2023-04-24T11:15:00;13.30;93.60
8537;DHT22;4306;50.210;10.628;2023-04-24T11:17:33;13.30;93.00
8537;DHT22;4306;50.210;10.628;2023-04-24T11:20:03;13.20;92.60
8537;DHT22;4306;50.210;10.628;2023-04-24T11:22:34;12.60;92.40
8537;DHT22;4306;50.210;10.628;2023-04-24T11:25:01;12.80;92.20
8537;DHT22;4306;50.210;10.628;2023-04-24T11:27:30;12.70;92.10
8537;DHT22;4306;50.210;10.628;2023-04-24T11:30:02;12.70;93.30
8537;DHT22;4306;50.210;10.628;2023-04-24T11:32:34;12.50;93.00
8537;DHT22;4306;50.210;10.628;2023-04-24T11:35:02;12.70;92.90
8537;DHT22;4306;50.210;10.628;2023-04-24T11:37:33;12.70;93.30
8537;DHT22;4306;50.210;10.628;2023-04-24T11:40:01;12.60;93.30
8537;DHT22;4306;50.210;10.628;2023-04-24T11:42:28;12.60;93.50
8537;DHT22;4306;50.210;10.628;2023-04-24T11:44:55;12.50;93.80
8537;DHT22;4306;50.210;10.628;2023-04-24T11:47:32;12.60;94.00
8537;DHT22;4306;50.210;10.628;2023-04-24T11:50:00;12.40;93.60
8537;DHT22;4306;50.210;10.628;2023-04-24T11:52:27;12.40;94.30
8537;DHT22;4306;50.210;10.628;2023-04-24T11:54:54;12.10;94.30
8537;DHT22;4306;50.210;10.628;2023-04-24T11:57:21;12.10;94.70
8537;DHT22;4306;50.210;10.628;2023-04-24T11:59:48;12.20;95.30
8537;DHT22;4306;50.210;10.628;2023-04-24T12:02:25;12.20;95.30
8537;DHT22;4306;50.210;10.628;2023-04-24T12:04:54;12.00;95.20
8537;DHT22;4306;50.210;10.628;2023-04-24T12:07:21;12.20;95.40
8537;DHT22;4306;50.210;10.628;2023-04-24T12:09:54;12.20;95.50
8537;DHT22;4306;50.210;10.628;2023-04-24T12:12:25;12.20;95.30
8537;DHT22;4306;50.210;10.628;2023-04-24T12:14:53;12.40;95.20
8537;DHT22;4306;50.210;10.628;2023-04-24T12:17:26;12.60;95.30
8537;DHT22;4306;50.210;10.628;2023-04-24T12:19:59;12.60;94.80
8537;DHT22;4306;50.210;10.628;2023-04-24T12:22:27;12.40;93.80
8537;DHT22;4306;50.210;10.628;2023-04-24T12:25:01;12.40;94.50
8537;DHT22;4306;50.210;10.628;2023-04-24T12:27:30;12.60;95.50
8537;DHT22;4306;50.210;10.628;2023-04-24T12:29:58;12.70;95.30
8537;DHT22;4306;50.210;10.628;2023-04-24T12:32:26;12.80;95.30
8537;DHT22;4306;50.210;10.628;2023-04-24T12:34:53;12.90;94.90
8537;DHT22;4306;50.210;10.628;2023-04-24T12:37:23;12.80;94.50
8537;DHT22;4306;50.210;10.628;2023-04-24T12:40:04;12.90;94.60
8537;DHT22;4306;50.210;10.628;2023-04-24T12:42:32;13.00;94.80
8537;DHT22;4306;50.210;10.628;2023-04-24T12:45:01;13.00;94.40
8537;DHT22;4306;50.210;10.628;2023-04-24T12:47:29;13.00;94.30
8537;DHT22;4306;50.210;10.628;2023-04-24T12:49:56;13.00;94.80
8537;DHT22;4306;50.210;10.628;2023-04-24T12:52:25;12.90;93.90
8537;DHT22;4306;50.210;10.628;2023-04-24T12:54:53;13.00;94.20
8537;DHT22;4306;50.210;10.628;2023-04-24T12:57:20;13.00;94.20
8537;DHT22;4306;50.210;10.628;2023-04-24T12:59:47;12.80;93.80
8537;DHT22;4306;50.210;10.628;2023-04-24T13:02:14;12.80;94.30
8537;DHT22;4306;50.210;10.628;2023-04-24T13:04:44;12.80;94.40
8537;DHT22;4306;50.210;10.628;2023-04-24T13:07:11;12.70;94.10
8537;DHT22;4306;50.210;10.628;2023-04-24T13:09:40;12.60;94.60
8537;DHT22;4306;50.210;10.628;2023-04-24T13:12:08;12.50;95.10
8537;DHT22;4306;50.210;10.628;2023-04-24T13:14:35;12.70;95.00
8537;DHT22;4306;50.210;10.628;2023-04-24T13:17:02;12.80;94.40
8537;DHT22;4306;50.210;10.628;2023-04-24T13:19:29;12.60;94.60
8537;DHT22;4306;50.210;10.628;2023-04-24T13:21:57;12.70;94.40
8537;DHT22;4306;50.210;10.628;2023-04-24T13:24:24;12.70;94.40
8537;DHT22;4306;50.210;10.628;2023-04-24T13:26:53;12.80;94.90
8537;DHT22;4306;50.210;10.628;2023-04-24T13:29:20;12.80;94.50
8537;DHT22;4306;50.210;10.628;2023-04-24T13:31:47;12.80;94.10
8537;DHT22;4306;50.210;10.628;2023-04-24T13:34:14;12.80;94.10
8537;DHT22;4306;50.210;10.628;2023-04-24T13:36:41;12.90;94.60
8537;DHT22;4306;50.210;10.628;2023-04-24T13:39:08;13.00;94.70
8537;DHT22;4306;50.210;10.628;2023-04-24T13:41:36;13.00;94.70
8537;DHT22;4306;50.210;10.628;2023-04-24T13:44:05;13.00;95.00
8537;DHT22;4306;50.210;10.628;2023-04-24T13:46:32;13.10;95.00
8537;DHT22;4306;50.210;10.628;2023-04-24T13:48:59;13.10;93.80
8537;DHT22;4306;50.210;10.628;2023-04-24T13:51:26;12.90;94.00
8537;DHT22;4306;50.210;10.628;2023-04-24T13:53:53;12.70;93.90
8537;DHT22;4306;50.210;10.628;2023-04-24T13:56:20;12.80;94.70
8537;DHT22;4306;50.210;10.628;2023-04-24T13:58:47;12.80;94.60
8537;DHT22;4306;50.210;10.628;2023-04-24T14:01:16;13.00;94.80
8537;DHT22;4306;50.210;10.628;2023-04-24T14:03:43;13.00;94.50
8537;DHT22;4306;50.210;10.628;2023-04-24T14:06:09;13.00;94.70
8537;DHT22;4306;50.210;10.628;2023-04-24T14:08:36;12.90;94.80
8537;DHT22;4306;50.210;10.628;2023-04-24T14:11:04;12.90;94.90
8537;DHT22;4306;50.210;10.628;2023-04-24T14:13:31;12.90;94.70
8537;DHT22;4306;50.210;10.628;2023-04-24T14:15:58;12.90;94.50
8537;DHT22;4306;50.210;10.628;2023-04-24T14:18:28;13.00;95.10
8537;DHT22;4306;50.210;10.628;2023-04-24T14:20:55;13.00;94.70
8537;DHT22;4306;50.210;10.628;2023-04-24T14:23:22;13.20;94.60
8537;DHT22;4306;50.210;10.628;2023-04-24T14:25:49;13.50;94.30
8537;DHT22;4306;50.210;10.628;2023-04-24T14:28:18;13.50;94.10
8537;DHT22;4306;50.210;10.628;2023-04-24T14:30:45;13.10;93.40
8537;DHT22;4306;50.210;10.628;2023-04-24T14:33:12;13.00;93.60
8537;DHT22;4306;50.210;10.628;2023-04-24T14:35:41;13.20;94.10
8537;DHT22;4306;50.210;10.628;2023-04-24T14:38:08;13.30;93.90
8537;DHT22;4306;50.210;10.628;2023-04-24T14:40:36;13.30;94.30
8537;DHT22;4306;50.210;10.628;2023-04-24T14:43:03;13.40;94.60
8537;DHT22;4306;50.210;10.628;2023-04-24T14:45:30;13.40;94.70
8537;DHT22;4306;50.210;10.628;2023-04-24T14:47:57;13.30;93.80
8537;DHT22;4306;50.210;10.628;2023-04-24T14:50:24;13.00;93.50
8537;DHT22;4306;50.210;10.628;2023-04-24T14:52:55;13.10;93.90
8537;DHT22;4306;50.210;10.628;2023-04-24T14:55:23;13.10;93.80
8537;DHT22;4306;50.210;10.628;2023-04-24T14:57:49;13.20;94.00
8537;DHT22;4306;50.210;10.628;2023-04-24T15:00:17;12.80;94.10
8537;DHT22;4306;50.210;10.628;2023-04-24T15:02:45;12.70;94.10
8537;DHT22;4306;50.210;10.628;2023-04-24T15:05:12;12.70;94.00
8537;DHT22;4306;50.210;10.628;2023-04-24T15:07:39;12.60;94.50
8537;DHT22;4306;50.210;10.628;2023-04-24T15:10:09;12.60;94.80
8537;DHT22;4306;50.210;10.628;2023-04-24T15:12:36;12.50;94.80
8537;DHT22;4306;50.210;10.628;2023-04-24T15:15:04;12.50;95.00
8537;DHT22;4306;50.210;10.628;2023-04-24T15:17:31;12.40;94.60
8537;DHT22;4306;50.210;10.628;2023-04-24T15:19:58;12.30;94.80
8537;DHT22;4306;50.210;10.628;2023-04-24T15:22:25;12.50;94.90
8537;DHT22;4306;50.210;10.628;2023-04-24T15:24:51;12.50;95.10
8537;DHT22;4306;50.210;10.628;2023-04-24T15:27:19;12.50;95.00
8537;DHT22;4306;50.210;10.628;2023-04-24T15:29:46;12.50;95.40
8537;DHT22;4306;50.210;10.628;2023-04-24T15:32:13;12.50;95.50
8537;DHT22;4306;50.210;10.628;2023-04-24T15:34:40;12.40;94.90
8537;DHT22;4306;50.210;10.628;2023-04-24T15:37:07;12.00;96.00
8537;DHT22;4306;50.210;10.628;2023-04-24T15:39:34;10.80;98.40
8537;DHT22;4306;50.210;10.628;2023-04-24T15:42:01;9.90;99.90
8537;DHT22;4306;50.210;10.628;2023-04-24T15:44:29;9.40;99.90
8537;DHT22;4306;50.210;10.628;2023-04-24T15:46:56;9.20;99.90
8537;DHT22;4306;50.210;10.628;2023-04-24T15:49:22;9.60;99.90
8537;DHT22;4306;50.210;10.628;2023-04-24T15:51:49;9.70;99.90